createdAt,value
2018-08-31T00:01:25.288Z,55.85
2018-08-31T00:05:01.805Z,55.89
2018-08-31T00:07:47.750Z,55.21
2018-08-31T00:10:35.699Z,55.22
2018-08-31T00:13:03.407Z,55.28
2018-08-31T00:15:31.088Z,54.91
2018-08-31T00:17:58.803Z,55.67
2018-08-31T00:20:26.588Z,55.10
2018-08-31T00:22:54.309Z,54.92
2018-08-31T00:26:04.436Z,55.00
2018-08-31T00:29:50.766Z,55.51
2018-08-31T00:33:33.170Z,55.42
2018-08-31T00:38:17.340Z,55.24
2018-08-31T00:40:55.922Z,55.23
2018-08-31T00:43:35.102Z,55.33
2018-08-31T00:46:02.920Z,55.73
2018-08-31T00:48:30.942Z,54.86
2018-08-31T00:50:59.053Z,55.75
2018-08-31T00:53:28.109Z,54.97
2018-08-31T00:55:56.093Z,55.41
2018-08-31T00:58:23.799Z,55.41
2018-08-31T01:00:51.853Z,54.63
2018-08-31T01:03:20.120Z,55.00
2018-08-31T01:05:48.478Z,54.91
2018-08-31T01:08:16.444Z,55.25
2018-08-31T01:10:44.134Z,55.10
2018-08-31T01:13:12.098Z,54.40
2018-08-31T01:15:39.780Z,54.46
2018-08-31T01:18:07.520Z,54.15
2018-08-31T01:20:35.654Z,54.19
2018-08-31T01:23:03.336Z,53.95
2018-08-31T01:25:32.763Z,54.50
2018-08-31T01:28:00.555Z,53.74
2018-08-31T01:30:28.551Z,54.23
2018-08-31T01:32:56.245Z,54.22
2018-08-31T01:35:24.234Z,53.86
2018-08-31T01:37:51.910Z,54.54
2018-08-31T01:40:20.139Z,54.48
2018-08-31T01:42:48.149Z,54.49
2018-08-31T01:45:15.849Z,54.74
2018-08-31T01:47:43.777Z,53.87
2018-08-31T01:50:11.441Z,54.01
2018-08-31T01:52:39.301Z,53.70
2018-08-31T01:55:07.383Z,54.25
2018-08-31T01:57:35.382Z,54.22
2018-08-31T02:00:03.336Z,54.04
2018-08-31T02:02:31.092Z,54.58
2018-08-31T02:04:59.339Z,54.04
2018-08-31T02:07:27.766Z,53.67
2018-08-31T02:09:55.530Z,53.51
2018-08-31T02:12:23.250Z,53.79
2018-08-31T02:14:51.256Z,53.19
2018-08-31T02:17:19.228Z,53.23
2018-08-31T02:19:46.936Z,53.21
2018-08-31T02:22:14.692Z,53.31
2018-08-31T02:24:42.780Z,53.22
2018-08-31T02:27:10.502Z,53.41
2018-08-31T02:29:38.524Z,53.20
2018-08-31T02:32:06.265Z,52.97
2018-08-31T02:34:34.254Z,53.67
2018-08-31T02:37:02.595Z,53.25
2018-08-31T02:39:30.646Z,53.40
2018-08-31T02:41:58.883Z,53.58
2018-08-31T02:44:26.937Z,53.36
2018-08-31T02:46:54.651Z,53.30
2018-08-31T02:49:22.385Z,53.19
2018-08-31T02:51:56.843Z,53.57
2018-08-31T02:54:25.240Z,53.08
2018-08-31T02:56:52.983Z,53.13
2018-08-31T02:59:21.137Z,52.69
2018-08-31T03:01:48.860Z,52.79
2018-08-31T03:04:17.325Z,53.19
2018-08-31T03:06:45.653Z,53.22
2018-08-31T03:09:13.532Z,53.22
2018-08-31T03:11:41.469Z,52.70
2018-08-31T03:14:09.209Z,53.10
2018-08-31T03:16:36.956Z,52.36
2018-08-31T03:19:04.930Z,52.76
2018-08-31T03:21:33.001Z,53.16
2018-08-31T03:24:01.003Z,53.23
2018-08-31T03:26:28.912Z,52.92
2018-08-31T03:28:56.945Z,52.95
2018-08-31T03:31:24.928Z,52.59
2018-08-31T03:33:52.988Z,52.98
2018-08-31T03:36:20.934Z,53.32
2018-08-31T03:38:48.943Z,53.49
2018-08-31T03:41:16.705Z,52.99
2018-08-31T03:43:44.476Z,53.01
2018-08-31T03:46:12.490Z,52.76
2018-08-31T03:48:40.279Z,52.70
2018-08-31T03:51:08.242Z,52.61
2018-08-31T03:53:36.000Z,52.68
2018-08-31T03:56:04.309Z,53.30
2018-08-31T03:58:32.595Z,52.62
2018-08-31T04:01:00.296Z,52.50
2018-08-31T04:03:28.069Z,52.79
2018-08-31T04:05:55.783Z,52.61
2018-08-31T04:08:23.692Z,53.11
2018-08-31T04:10:51.735Z,53.11
2018-08-31T04:41:12.245Z,52.99
2018-08-31T04:43:40.271Z,52.99
2018-08-31T04:46:08.176Z,52.54
2018-08-31T04:48:35.918Z,53.20
2018-08-31T04:51:03.751Z,52.93
2018-08-31T04:53:31.643Z,52.97
2018-08-31T04:55:59.359Z,52.85
2018-08-31T04:58:27.355Z,52.57
2018-08-31T05:00:55.926Z,52.46
2018-08-31T05:03:24.523Z,52.51
2018-08-31T05:05:52.191Z,52.53
2018-08-31T05:08:20.106Z,52.51
2018-08-31T05:10:47.848Z,52.51
2018-08-31T05:13:15.704Z,51.76
2018-08-31T05:15:43.386Z,53.07
2018-08-31T05:18:11.273Z,52.36
2018-08-31T05:20:38.965Z,55.74
2018-08-31T05:23:06.861Z,56.63
2018-08-31T05:25:34.858Z,55.62
2018-08-31T05:28:02.797Z,54.97
2018-08-31T05:30:30.546Z,54.38
2018-08-31T05:32:59.064Z,54.35
2018-08-31T05:35:27.115Z,53.31
2018-08-31T05:37:54.828Z,53.01
2018-08-31T05:40:22.518Z,52.81
2018-08-31T05:42:50.584Z,53.36
2018-08-31T05:45:18.925Z,53.53
2018-08-31T05:47:46.614Z,52.62
2018-08-31T05:50:14.740Z,52.69
2018-08-31T05:52:42.450Z,53.36
2018-08-31T05:55:10.866Z,53.05
2018-08-31T05:57:38.795Z,53.29
2018-08-31T06:00:06.802Z,53.02
2018-08-31T06:02:34.750Z,53.09
2018-08-31T06:05:02.479Z,52.96
2018-08-31T06:07:30.724Z,52.62
2018-08-31T06:09:58.906Z,52.66
2018-08-31T06:12:26.824Z,52.50
2018-08-31T06:14:54.442Z,52.64
2018-08-31T06:17:22.377Z,52.77
2018-08-31T06:19:50.252Z,52.78
2018-08-31T06:22:18.153Z,52.71
2018-08-31T06:24:45.817Z,52.62
2018-08-31T06:27:14.132Z,52.28
2018-08-31T06:29:42.303Z,52.42
2018-08-31T06:32:09.993Z,51.94
2018-08-31T06:34:38.160Z,52.70
2018-08-31T06:37:06.534Z,51.74
2018-08-31T06:39:34.625Z,52.12
2018-08-31T06:42:02.857Z,52.18
2018-08-31T06:44:31.415Z,51.83
2018-08-31T06:46:59.155Z,51.71
2018-08-31T06:49:26.983Z,51.55
2018-08-31T06:51:54.901Z,52.22
2018-08-31T06:54:22.564Z,52.00
2018-08-31T06:56:50.398Z,52.43
2018-08-31T06:59:18.088Z,52.30
2018-08-31T07:01:46.101Z,51.58
2018-08-31T07:04:14.000Z,51.77
2018-08-31T07:06:41.935Z,52.15
2018-08-31T07:09:10.792Z,52.02
2018-08-31T07:11:38.777Z,51.90
2018-08-31T07:14:07.257Z,51.32
2018-08-31T07:16:34.970Z,51.35
2018-08-31T07:19:02.866Z,51.95
2018-08-31T07:21:30.920Z,51.60
2018-08-31T07:23:58.534Z,51.28
2018-08-31T07:26:26.928Z,51.76
2018-08-31T07:28:54.573Z,52.03
2018-08-31T07:31:22.318Z,50.97
2018-08-31T07:33:50.602Z,51.82
2018-08-31T07:36:18.566Z,50.93
2018-08-31T07:38:46.118Z,51.69
2018-08-31T07:41:14.215Z,50.96
2018-08-31T07:43:41.963Z,50.80
2018-08-31T07:46:10.134Z,50.77
2018-08-31T07:48:37.815Z,51.26
2018-08-31T07:51:05.918Z,50.62
2018-08-31T07:53:33.593Z,50.42
2018-08-31T07:56:01.317Z,51.15
2018-08-31T07:58:29.041Z,51.05
2018-08-31T08:00:56.797Z,50.97
2018-08-31T08:03:24.476Z,50.40
2018-08-31T08:05:53.062Z,50.95
2018-08-31T08:08:21.228Z,50.42
2018-08-31T08:10:49.163Z,50.96
2018-08-31T08:13:16.841Z,50.26
2018-08-31T08:15:44.875Z,50.79
2018-08-31T08:18:12.478Z,49.99
2018-08-31T08:20:40.138Z,49.81
2018-08-31T08:23:08.083Z,49.77
2018-08-31T08:25:35.790Z,50.28
2018-08-31T08:28:03.726Z,50.29
2018-08-31T08:30:31.383Z,49.59
2018-08-31T08:32:59.405Z,49.61
2018-08-31T08:35:27.154Z,49.39
2018-08-31T08:37:55.452Z,49.97
2018-08-31T08:40:23.128Z,49.27
2018-08-31T08:42:50.785Z,49.26
2018-08-31T08:45:18.891Z,49.10
2018-08-31T08:47:46.802Z,49.67
2018-08-31T08:50:14.487Z,49.78
2018-08-31T08:52:42.149Z,49.71
2018-08-31T08:55:09.783Z,49.05
2018-08-31T08:57:38.015Z,49.53
2018-08-31T09:00:05.825Z,49.15
2018-08-31T09:02:33.776Z,48.77
2018-08-31T09:05:02.148Z,49.25
2018-08-31T09:07:29.797Z,49.00
2018-08-31T09:09:57.494Z,49.06
2018-08-31T09:12:25.739Z,48.45
2018-08-31T09:14:53.629Z,48.47
2018-08-31T09:17:21.305Z,49.00
2018-08-31T09:19:49.373Z,48.28
2018-08-31T09:22:17.223Z,48.38
2018-08-31T09:24:45.163Z,48.92
2018-08-31T09:27:13.814Z,48.15
2018-08-31T09:29:41.879Z,48.14
2018-08-31T09:32:14.912Z,48.19
2018-08-31T09:34:47.969Z,47.95
2018-08-31T09:37:17.004Z,47.98
2018-08-31T09:39:44.837Z,48.04
2018-08-31T09:42:12.471Z,48.60
2018-08-31T09:44:40.137Z,48.33
2018-08-31T09:47:08.294Z,48.00
2018-08-31T09:49:36.010Z,48.52
2018-08-31T09:52:03.627Z,48.62
2018-08-31T09:54:31.798Z,48.06
2018-08-31T09:57:00.026Z,48.88
2018-08-31T09:59:27.735Z,48.55
2018-08-31T10:02:00.506Z,47.94
2018-08-31T10:04:28.258Z,47.95
2018-08-31T10:06:55.970Z,48.10
2018-08-31T10:09:23.634Z,48.83
2018-08-31T10:11:51.281Z,49.11
2018-08-31T10:14:19.106Z,48.39
2018-08-31T10:16:48.119Z,48.46
2018-08-31T10:19:16.089Z,48.67
2018-08-31T10:21:44.124Z,48.86
2018-08-31T10:24:11.992Z,48.71
2018-08-31T10:26:40.498Z,48.61
2018-08-31T10:29:08.609Z,48.59
2018-08-31T10:31:37.037Z,47.97
2018-08-31T10:34:04.917Z,48.38
2018-08-31T10:36:33.117Z,48.57
2018-08-31T10:39:00.812Z,48.52
2018-08-31T10:41:28.760Z,48.68
2018-08-31T10:43:57.188Z,47.86
2018-08-31T10:46:24.837Z,48.48
2018-08-31T10:48:52.520Z,48.11
2018-08-31T10:51:20.145Z,48.24
2018-08-31T10:53:47.823Z,48.88
2018-08-31T10:56:15.506Z,48.94
2018-08-31T10:58:43.164Z,48.27
2018-08-31T11:01:10.819Z,48.37
2018-08-31T11:03:38.564Z,48.97
2018-08-31T11:06:06.588Z,48.97
2018-08-31T11:08:34.312Z,49.01
2018-08-31T11:11:02.226Z,48.99
2018-08-31T11:13:30.511Z,48.68
2018-08-31T11:15:58.448Z,48.52
2018-08-31T11:18:26.652Z,48.27
2018-08-31T11:20:54.596Z,48.65
2018-08-31T11:23:22.619Z,48.98
2018-08-31T11:25:50.269Z,49.15
2018-08-31T11:28:18.308Z,49.17
2018-08-31T11:30:45.913Z,49.13
2018-08-31T11:33:14.052Z,49.01
2018-08-31T11:35:41.676Z,49.48
2018-08-31T11:38:09.387Z,49.30
2018-08-31T11:40:37.348Z,49.46
2018-08-31T11:43:05.404Z,49.36
2018-08-31T11:45:33.902Z,49.08
2018-08-31T11:48:02.169Z,48.63
2018-08-31T11:50:29.822Z,48.68
2018-08-31T11:52:58.064Z,48.90
2018-08-31T11:55:26.924Z,48.96
2018-08-31T11:57:54.542Z,48.96
2018-08-31T12:00:22.247Z,49.59
2018-08-31T12:02:50.685Z,49.02
2018-08-31T12:05:18.432Z,49.04
2018-08-31T12:07:46.104Z,49.64
2018-08-31T12:10:14.198Z,48.95
2018-08-31T12:12:42.592Z,49.44
2018-08-31T12:15:10.368Z,48.84
2018-08-31T12:17:38.282Z,49.20
2018-08-31T12:20:06.566Z,49.16
2018-08-31T12:22:34.227Z,48.68
2018-08-31T12:25:02.430Z,48.55
2018-08-31T12:27:30.709Z,49.49
2018-08-31T12:29:58.616Z,49.51
2018-08-31T12:32:26.359Z,49.08
2018-08-31T12:34:54.050Z,49.12
2018-08-31T12:37:21.941Z,49.75
2018-08-31T12:39:49.812Z,49.47
2018-08-31T12:42:17.808Z,49.99
2018-08-31T12:44:46.173Z,49.88
2018-08-31T12:47:14.041Z,49.14
2018-08-31T12:49:41.707Z,49.86
2018-08-31T12:52:09.379Z,49.27
2018-08-31T12:54:37.375Z,49.71
2018-08-31T12:57:05.045Z,49.06
2018-08-31T12:59:32.807Z,49.56
2018-08-31T13:02:00.905Z,49.59
2018-08-31T13:04:29.526Z,48.87
2018-08-31T13:06:57.551Z,48.85
2018-08-31T13:09:25.396Z,48.71
2018-08-31T13:11:53.765Z,48.62
2018-08-31T13:14:21.710Z,49.35
2018-08-31T13:16:49.606Z,48.63
2018-08-31T13:19:17.657Z,48.67
2018-08-31T13:21:45.353Z,48.30
2018-08-31T13:24:13.016Z,48.77
2018-08-31T13:26:40.897Z,49.06
2018-08-31T13:29:08.531Z,48.44
2018-08-31T13:31:42.866Z,49.37
2018-08-31T13:34:10.807Z,48.83
2018-08-31T13:36:38.517Z,49.55
2018-08-31T13:39:06.625Z,49.25
2018-08-31T13:41:34.279Z,49.48
2018-08-31T13:44:02.583Z,50.03
2018-08-31T13:46:30.592Z,49.83
2018-08-31T13:48:58.271Z,49.35
2018-08-31T13:51:25.900Z,49.75
2018-08-31T13:53:53.559Z,49.67
2018-08-31T13:56:21.576Z,49.55
2018-08-31T13:58:49.575Z,48.85
2018-08-31T14:01:17.239Z,48.96
2018-08-31T14:03:45.187Z,48.73
2018-08-31T14:06:13.035Z,48.72
2018-08-31T14:08:40.647Z,49.25
2018-08-31T14:11:08.272Z,48.98
2018-08-31T14:13:35.978Z,48.13
2018-08-31T14:16:03.597Z,47.85
2018-08-31T14:18:31.514Z,48.19
2018-08-31T14:20:59.151Z,46.16
2018-08-31T14:23:26.834Z,44.85
2018-08-31T14:25:54.439Z,43.89
2018-08-31T14:28:22.030Z,43.61
2018-08-31T14:30:49.962Z,42.85
2018-08-31T14:33:17.573Z,41.18
2018-08-31T14:35:45.808Z,41.24
2018-08-31T14:38:13.814Z,42.04
2018-08-31T14:40:41.449Z,45.19
2018-08-31T14:43:09.684Z,44.37
2018-08-31T14:45:37.756Z,44.18
2018-08-31T14:48:05.372Z,42.55
2018-08-31T14:50:33.056Z,40.38
2018-08-31T14:53:00.740Z,40.12
2018-08-31T14:55:28.368Z,41.17
2018-08-31T14:57:56.311Z,41.04
2018-08-31T15:00:24.401Z,39.21
2018-08-31T15:02:52.087Z,38.61
2018-08-31T15:05:19.780Z,38.56
2018-08-31T15:07:47.452Z,38.06
2018-08-31T15:10:15.434Z,39.22
2018-08-31T15:12:44.456Z,39.24
2018-08-31T15:15:12.174Z,38.44
2018-08-31T15:17:40.137Z,37.96
2018-08-31T15:20:08.173Z,37.94
2018-08-31T15:22:36.213Z,38.20
2018-08-31T15:25:03.952Z,37.86
2018-08-31T15:27:31.631Z,38.16
2018-08-31T15:29:59.355Z,37.83
2018-08-31T15:32:27.020Z,38.54
2018-08-31T15:34:54.964Z,39.34
2018-08-31T15:37:23.243Z,39.80
2018-08-31T15:39:51.266Z,40.39
2018-08-31T15:42:18.978Z,40.83
2018-08-31T15:44:46.997Z,42.44
2018-08-31T15:47:14.628Z,43.72
2018-08-31T15:49:42.614Z,44.89
2018-08-31T15:52:10.482Z,45.68
2018-08-31T15:54:38.129Z,45.64
2018-08-31T15:57:05.790Z,46.16
2018-08-31T15:59:33.868Z,46.08
2018-08-31T16:02:01.874Z,46.50
2018-08-31T16:04:29.558Z,46.59
2018-08-31T16:06:57.516Z,46.29
2018-08-31T16:09:25.725Z,46.99
2018-08-31T16:11:53.681Z,46.44
2018-08-31T16:14:21.905Z,46.74
2018-08-31T16:16:49.798Z,46.81
2018-08-31T16:19:18.096Z,47.72
2018-08-31T16:21:45.839Z,46.88
2018-08-31T16:24:13.777Z,47.74
2018-08-31T16:26:41.725Z,47.37
2018-08-31T16:29:09.360Z,47.27
2018-08-31T16:31:37.465Z,47.62
2018-08-31T16:34:05.502Z,47.23
2018-08-31T16:36:33.185Z,48.23
2018-08-31T16:39:00.971Z,47.79
2018-08-31T16:41:28.983Z,48.13
2018-08-31T16:43:56.709Z,48.43
2018-08-31T16:46:24.701Z,48.36
2018-08-31T16:48:52.632Z,47.78
2018-08-31T16:51:20.597Z,47.95
2018-08-31T16:53:49.472Z,48.33
2018-08-31T16:56:17.524Z,48.44
2018-08-31T16:58:45.162Z,48.35
2018-08-31T17:01:12.901Z,48.75
2018-08-31T17:03:40.605Z,49.01
2018-08-31T17:06:08.248Z,49.02
2018-08-31T17:08:35.938Z,49.10
2018-08-31T17:11:03.692Z,48.84
2018-08-31T17:13:31.370Z,48.44
2018-08-31T17:15:59.052Z,48.30
2018-08-31T17:18:26.701Z,48.30
2018-08-31T17:20:54.381Z,48.71
2018-08-31T17:23:22.324Z,48.26
2018-08-31T17:25:50.076Z,48.28
2018-08-31T17:28:23.301Z,48.35
2018-08-31T17:30:56.661Z,48.48
2018-08-31T17:33:29.801Z,48.74
2018-08-31T17:36:03.010Z,48.66
2018-08-31T17:38:30.937Z,48.92
2018-08-31T17:40:58.600Z,48.98
2018-08-31T17:43:26.322Z,48.56
2018-08-31T17:45:53.949Z,48.58
2018-08-31T17:48:21.967Z,49.27
2018-08-31T17:50:50.106Z,48.75
2018-08-31T17:53:18.121Z,49.67
2018-08-31T17:55:45.788Z,49.47
2018-08-31T17:58:13.677Z,49.85
2018-08-31T18:00:41.701Z,49.54
2018-08-31T18:03:09.362Z,50.43
2018-08-31T18:05:37.034Z,49.70
2018-08-31T18:08:05.049Z,50.42
2018-08-31T18:10:32.728Z,50.69
2018-08-31T18:13:00.361Z,50.35
2018-08-31T18:15:28.362Z,50.50
2018-08-31T18:17:56.017Z,51.38
2018-08-31T18:20:23.698Z,50.79
2018-08-31T18:22:51.373Z,51.26
2018-08-31T18:25:19.057Z,51.07
2018-08-31T18:27:46.800Z,51.17
2018-08-31T18:30:14.678Z,51.78
2018-08-31T18:32:42.629Z,51.75
2018-08-31T18:35:10.272Z,52.34
2018-08-31T18:37:37.896Z,51.63
2018-08-31T18:40:05.873Z,51.68
2018-08-31T18:42:33.515Z,51.80
2018-08-31T18:45:01.848Z,52.46
2018-08-31T18:47:29.520Z,52.33
2018-08-31T18:49:57.557Z,52.62
2018-08-31T18:52:26.182Z,52.09
2018-08-31T18:54:54.234Z,52.29
2018-08-31T18:57:21.889Z,52.31
2018-08-31T18:59:49.950Z,52.29
2018-08-31T19:02:17.930Z,53.18
2018-08-31T19:04:45.819Z,52.55
2018-08-31T19:07:13.607Z,52.60
2018-08-31T19:09:41.294Z,53.33
2018-08-31T19:12:09.024Z,53.41
2018-08-31T19:14:36.714Z,52.76
2018-08-31T19:17:04.386Z,53.39
2018-08-31T19:19:32.325Z,53.05
2018-08-31T19:22:00.149Z,53.68
2018-08-31T19:24:27.779Z,53.71
2018-08-31T19:26:57.417Z,53.79
2018-08-31T19:29:26.077Z,53.41
2018-08-31T19:31:54.072Z,53.22
2018-08-31T19:34:22.427Z,53.34
2018-08-31T19:36:50.416Z,53.18
2018-08-31T19:39:18.137Z,53.91
2018-08-31T19:41:45.842Z,53.29
2018-08-31T19:44:13.754Z,54.10
2018-08-31T19:46:41.483Z,54.02
2018-08-31T19:49:09.340Z,53.58
2018-08-31T19:51:37.623Z,53.50
2018-08-31T19:54:05.325Z,54.30
2018-08-31T19:56:32.955Z,53.69
2018-08-31T19:59:00.850Z,54.45
2018-08-31T20:01:28.559Z,54.15
2018-08-31T20:03:56.542Z,53.79
2018-08-31T20:06:24.812Z,53.68
2018-08-31T20:08:52.773Z,54.11
2018-08-31T20:11:20.451Z,54.17
2018-08-31T20:13:48.183Z,54.12
2018-08-31T20:16:15.898Z,53.90
2018-08-31T20:18:43.822Z,53.91
2018-08-31T20:21:11.487Z,54.01
2018-08-31T20:23:39.158Z,54.59
2018-08-31T20:26:06.864Z,54.04
2018-08-31T20:28:34.514Z,54.27
2018-08-31T20:31:02.234Z,54.31
2018-08-31T20:33:29.969Z,54.06
2018-08-31T20:35:57.662Z,54.22
2018-08-31T20:38:25.582Z,54.87
2018-08-31T20:40:59.958Z,54.77
2018-08-31T20:43:27.941Z,54.79
2018-08-31T20:45:56.241Z,54.19
2018-08-31T20:48:24.529Z,54.34
2018-08-31T20:50:52.963Z,54.51
2018-08-31T20:53:21.245Z,54.51
2018-08-31T20:55:49.221Z,54.29
2018-08-31T20:58:16.948Z,54.92
2018-08-31T21:00:44.913Z,55.03
2018-08-31T21:03:13.127Z,55.09
2018-08-31T21:05:40.916Z,55.07
2018-08-31T21:08:09.368Z,55.21
2018-08-31T21:10:37.077Z,55.12
2018-08-31T21:13:05.424Z,55.15
2018-08-31T21:15:33.336Z,55.30
2018-08-31T21:18:01.382Z,54.60
2018-08-31T21:20:29.361Z,55.22
2018-08-31T21:22:57.062Z,55.20
2018-08-31T21:25:25.051Z,54.69
2018-08-31T21:27:53.066Z,55.32
2018-08-31T21:30:20.781Z,54.86
2018-08-31T21:32:48.509Z,55.47
2018-08-31T21:35:16.149Z,55.11
2018-08-31T21:37:44.155Z,55.43
2018-08-31T21:40:12.090Z,54.91
2018-08-31T21:42:39.766Z,54.84
2018-08-31T21:45:07.503Z,55.38
2018-08-31T21:47:35.753Z,55.58
2018-08-31T21:50:03.400Z,55.47
2018-08-31T21:52:31.346Z,55.68
2018-08-31T21:54:59.344Z,55.26
2018-08-31T21:57:27.004Z,55.33
2018-08-31T21:59:54.672Z,55.05
2018-08-31T22:02:22.325Z,55.17
2018-08-31T22:04:50.036Z,55.28
2018-08-31T22:07:18.116Z,55.71
2018-08-31T22:09:45.812Z,55.20
2018-08-31T22:12:13.483Z,55.48
2018-08-31T22:14:41.194Z,56.13
2018-08-31T22:17:08.874Z,55.19
2018-08-31T22:19:36.680Z,55.40
2018-08-31T22:22:04.357Z,55.97
2018-08-31T22:24:31.992Z,55.44
2018-08-31T22:26:59.707Z,55.40
2018-08-31T22:29:27.353Z,55.33
2018-08-31T22:31:55.069Z,55.80
2018-08-31T22:34:22.861Z,55.35
2018-08-31T22:36:50.904Z,56.15
2018-08-31T22:39:19.002Z,56.08
2018-08-31T22:41:47.026Z,56.17
2018-08-31T22:44:14.690Z,55.63
2018-08-31T22:46:42.316Z,55.52
2018-08-31T22:49:10.068Z,55.75
2018-08-31T22:51:37.995Z,56.16
2018-08-31T22:54:05.690Z,55.82
2018-08-31T22:56:33.368Z,56.22
2018-08-31T22:59:01.075Z,56.33
2018-08-31T23:01:29.349Z,56.29
2018-08-31T23:03:56.995Z,56.15
2018-08-31T23:06:28.660Z,55.73
2018-08-31T23:08:56.737Z,56.24
2018-08-31T23:11:24.450Z,56.22
2018-08-31T23:13:52.536Z,56.19
2018-08-31T23:16:20.197Z,55.65
2018-08-31T23:18:48.081Z,56.45
2018-08-31T23:21:16.164Z,55.64
2018-08-31T23:23:49.172Z,56.00
2018-08-31T23:26:17.568Z,56.29
2018-08-31T23:28:45.353Z,55.79
2018-08-31T23:31:13.249Z,55.77
2018-08-31T23:33:41.304Z,55.78
2018-08-31T23:36:09.418Z,55.68
2018-08-31T23:38:37.451Z,56.46
2018-08-31T23:41:05.178Z,55.80
2018-08-31T23:43:32.865Z,56.43
2018-08-31T23:46:01.114Z,55.77
2018-08-31T23:48:28.786Z,56.46
2018-08-31T23:50:56.707Z,55.97
2018-08-31T23:53:25.807Z,56.36
2018-08-31T23:55:53.478Z,55.80
2018-08-31T23:58:21.425Z,56.15
